createdAt,value
2018-09-05T00:00:11.244Z,92.50
2018-09-05T00:01:11.267Z,92.60
2018-09-05T00:02:11.241Z,92.46
2018-09-05T00:03:11.216Z,92.60
2018-09-05T00:04:11.511Z,92.50
2018-09-05T00:05:11.193Z,92.40
2018-09-05T00:06:11.197Z,92.00
2018-09-05T00:07:11.168Z,91.90
2018-09-05T00:08:11.171Z,91.60
2018-09-05T00:09:11.168Z,92.20
2018-09-05T00:10:11.160Z,91.39
2018-09-05T00:11:11.126Z,91.39
2018-09-05T00:12:11.114Z,92.16
2018-09-05T00:13:11.112Z,92.60
2018-09-05T00:14:11.183Z,91.90
2018-09-05T00:15:11.171Z,91.80
2018-09-05T00:16:11.101Z,92.00
2018-09-05T00:17:11.061Z,91.90
2018-09-05T00:18:11.050Z,91.90
2018-09-05T00:19:11.046Z,90.99
2018-09-05T00:20:11.082Z,91.09
2018-09-05T00:21:11.030Z,90.89
2018-09-05T00:22:11.041Z,92.00
2018-09-05T00:23:10.996Z,92.60
2018-09-05T00:24:11.026Z,92.91
2018-09-05T00:25:10.987Z,92.55
2018-09-05T00:26:10.990Z,92.65
2018-09-05T00:27:10.962Z,92.60
2018-09-05T00:28:10.955Z,91.90
2018-09-05T00:29:10.953Z,92.25
2018-09-05T00:30:10.932Z,91.90
2018-09-05T00:31:10.978Z,92.05
2018-09-05T00:32:10.925Z,91.80
2018-09-05T00:33:10.893Z,91.74
2018-09-05T00:34:10.894Z,91.94
2018-09-05T00:35:10.900Z,92.55
2018-09-05T00:36:10.859Z,92.95
2018-09-05T00:37:10.879Z,92.95
2018-09-05T00:38:10.840Z,93.46
2018-09-05T00:39:10.843Z,93.86
2018-09-05T00:40:10.832Z,92.75
2018-09-05T00:41:10.817Z,92.55
2018-09-05T00:42:10.837Z,92.95
2018-09-05T00:43:10.801Z,93.55
2018-09-05T00:44:10.784Z,93.76
2018-09-05T00:45:10.800Z,92.75
2018-09-05T00:46:10.771Z,93.86
2018-09-05T00:47:10.809Z,93.76
2018-09-05T00:48:10.761Z,93.96
2018-09-05T00:49:10.725Z,93.66
2018-09-05T00:50:10.742Z,93.15
2018-09-05T00:51:10.714Z,92.55
2018-09-05T00:52:10.708Z,92.35
2018-09-05T00:53:10.737Z,92.05
2018-09-05T00:54:10.673Z,92.14
2018-09-05T00:55:10.668Z,92.45
2018-09-05T00:56:10.671Z,92.09
2018-09-05T00:57:10.643Z,93.66
2018-09-05T00:58:10.651Z,94.26
2018-09-05T00:59:10.660Z,93.46
2018-09-05T01:00:10.611Z,92.90
2018-09-05T01:01:10.594Z,92.79
2018-09-05T01:02:10.598Z,92.79
2018-09-05T01:03:10.577Z,92.99
2018-09-05T01:04:10.594Z,94.20
2018-09-05T01:05:10.555Z,93.90
2018-09-05T01:06:10.548Z,94.16
2018-09-05T01:07:10.539Z,94.71
2018-09-05T01:08:10.569Z,93.30
2018-09-05T01:09:10.518Z,93.80
2018-09-05T01:10:10.534Z,94.00
2018-09-05T01:11:10.513Z,94.71
2018-09-05T01:12:10.479Z,94.60
2018-09-05T01:13:10.468Z,94.06
2018-09-05T01:14:10.494Z,93.30
2018-09-05T01:15:10.520Z,94.31
2018-09-05T01:16:10.461Z,94.71
2018-09-05T01:17:10.490Z,94.71
2018-09-05T01:18:10.415Z,94.00
2018-09-05T01:19:10.405Z,95.01
2018-09-05T01:20:10.405Z,94.40
2018-09-05T01:21:10.414Z,94.51
2018-09-05T01:22:10.409Z,94.71
2018-09-05T01:23:10.378Z,94.91
2018-09-05T01:24:10.381Z,95.41
2018-09-05T01:25:10.344Z,94.40
2018-09-05T01:26:10.367Z,94.40
2018-09-05T01:27:10.323Z,93.85
2018-09-05T01:28:10.323Z,93.50
2018-09-05T01:29:10.311Z,93.95
2018-09-05T01:30:10.292Z,94.75
2018-09-05T01:31:10.291Z,94.15
2018-09-05T01:32:10.319Z,93.85
2018-09-05T01:33:10.269Z,94.95
2018-09-05T01:34:10.264Z,95.06
2018-09-05T01:35:10.239Z,95.36
2018-09-05T01:36:10.268Z,95.56
2018-09-05T01:37:10.253Z,95.46
2018-09-05T01:38:10.234Z,94.95
2018-09-05T01:39:10.237Z,95.56
2018-09-05T01:40:10.202Z,94.65
2018-09-05T01:41:10.182Z,94.70
2018-09-05T01:42:10.234Z,95.46
2018-09-05T01:43:10.154Z,95.76
2018-09-05T01:44:10.182Z,95.66
2018-09-05T01:45:10.133Z,95.36
2018-09-05T01:46:10.129Z,95.66
2018-09-05T01:47:10.142Z,95.40
2018-09-05T01:48:10.124Z,95.46
2018-09-05T01:49:10.092Z,96.26
2018-09-05T01:50:10.083Z,96.26
2018-09-05T01:51:10.145Z,95.86
2018-09-05T01:52:10.061Z,95.90
2018-09-05T01:53:10.098Z,95.61
2018-09-05T01:54:10.044Z,96.81
2018-09-05T01:55:10.027Z,96.01
2018-09-05T01:56:10.016Z,96.51
2018-09-05T01:57:10.006Z,96.11
2018-09-05T01:58:10.029Z,96.31
2018-09-05T01:59:09.994Z,96.11
2018-09-05T02:00:09.980Z,96.61
2018-09-05T02:01:09.984Z,96.31
2018-09-05T02:02:09.953Z,96.51
2018-09-05T02:03:09.956Z,96.31
2018-09-05T02:04:10.008Z,96.11
2018-09-05T02:05:09.938Z,95.20
2018-09-05T02:06:09.908Z,95.61
2018-09-05T02:07:09.927Z,95.50
2018-09-05T02:08:09.916Z,96.31
2018-09-05T02:09:09.922Z,96.71
2018-09-05T02:10:09.870Z,96.51
2018-09-05T02:11:09.940Z,96.71
2018-09-05T02:12:09.848Z,96.81
2018-09-05T02:13:09.838Z,96.71
2018-09-05T02:14:09.917Z,96.81
2018-09-05T02:15:09.817Z,96.45
2018-09-05T02:16:09.801Z,95.95
2018-09-05T02:17:09.792Z,96.71
2018-09-05T02:18:09.783Z,96.76
2018-09-05T02:19:09.809Z,96.76
2018-09-05T02:20:09.771Z,96.11
2018-09-05T02:21:09.757Z,96.45
2018-09-05T02:22:09.739Z,96.56
2018-09-05T02:23:09.729Z,95.75
2018-09-05T02:24:09.715Z,95.65
2018-09-05T02:25:09.755Z,95.85
2018-09-05T02:26:09.723Z,96.36
2018-09-05T02:27:09.682Z,96.66
2018-09-05T02:28:09.692Z,96.86
2018-09-05T02:29:09.673Z,97.36
2018-09-05T02:30:09.775Z,97.41
2018-09-05T02:31:09.643Z,97.47
2018-09-05T02:32:09.647Z,96.96
2018-09-05T02:33:09.638Z,97.41
2018-09-05T02:34:09.623Z,97.97
2018-09-05T02:35:09.611Z,97.21
2018-09-05T02:36:09.612Z,97.31
2018-09-05T02:37:09.580Z,97.41
2018-09-05T02:38:09.566Z,97.16
2018-09-05T02:39:09.559Z,98.17
2018-09-05T02:40:09.579Z,97.51
2018-09-05T02:41:09.563Z,97.31
2018-09-05T02:42:09.525Z,97.31
2018-09-05T02:43:09.520Z,97.41
2018-09-05T02:44:09.514Z,98.02
2018-09-05T02:45:09.496Z,97.31
2018-09-05T02:46:09.520Z,97.21
2018-09-05T02:47:09.481Z,97.31
2018-09-05T02:48:09.474Z,97.51
2018-09-05T02:49:09.454Z,97.21
2018-09-05T02:50:09.442Z,97.21
2018-09-05T02:51:09.470Z,97.71
2018-09-05T02:52:09.420Z,97.71
2018-09-05T02:53:09.439Z,97.51
2018-09-05T02:54:09.410Z,98.02
2018-09-05T02:55:09.410Z,98.47
2018-09-05T02:56:09.417Z,98.11
2018-09-05T02:57:09.366Z,97.31
2018-09-05T02:58:09.364Z,98.22
2018-09-05T02:59:09.347Z,98.32
2018-09-05T03:00:09.375Z,98.22
2018-09-05T03:01:09.361Z,98.72
2018-09-05T03:02:09.320Z,98.11
2018-09-05T03:03:09.306Z,98.16
2018-09-05T03:04:09.290Z,97.96
2018-09-05T03:05:09.286Z,98.36
2018-09-05T03:06:09.293Z,98.16
2018-09-05T03:07:09.263Z,98.47
2018-09-05T03:08:09.265Z,98.27
2018-09-05T03:09:09.295Z,98.36
2018-09-05T03:10:09.233Z,98.32
2018-09-05T03:11:09.290Z,98.77
2018-09-05T03:12:09.213Z,98.27
2018-09-05T03:13:09.216Z,98.22
2018-09-05T03:14:09.217Z,98.36
2018-09-05T03:15:09.175Z,98.47
2018-09-05T03:16:09.275Z,98.77
2018-09-05T03:17:09.156Z,98.36
2018-09-05T03:18:09.143Z,98.36
2018-09-05T03:19:09.132Z,98.07
2018-09-05T03:20:09.126Z,98.47
2018-09-05T03:21:09.153Z,97.76
2018-09-05T03:22:09.105Z,97.36
2018-09-05T03:23:09.093Z,97.05
2018-09-05T03:24:09.085Z,97.86
2018-09-05T03:25:09.104Z,97.71
2018-09-05T03:26:09.057Z,97.56
2018-09-05T03:27:09.109Z,98.31
2018-09-05T03:28:09.034Z,98.31
2018-09-05T03:29:09.031Z,98.31
2018-09-05T03:30:09.025Z,98.31
2018-09-05T03:31:09.004Z,98.92
2018-09-05T03:32:09.035Z,98.31
2018-09-05T03:33:09.111Z,98.01
2018-09-05T03:34:08.985Z,98.51
2018-09-05T03:35:08.967Z,98.51
2018-09-05T03:36:08.949Z,98.31
2018-09-05T03:37:08.972Z,98.01
2018-09-05T03:38:08.931Z,98.41
2018-09-05T03:39:08.971Z,98.82
2018-09-05T03:40:08.910Z,98.11
2018-09-05T03:41:08.894Z,98.51
2018-09-05T03:42:08.898Z,98.82
2018-09-05T03:43:08.905Z,98.82
2018-09-05T03:44:08.863Z,99.62
2018-09-05T03:45:08.896Z,99.99
2018-09-05T03:46:08.843Z,99.52
2018-09-05T03:47:08.842Z,99.73
2018-09-05T03:48:08.846Z,99.99
2018-09-05T03:49:08.825Z,99.99
2018-09-05T03:50:08.799Z,99.99
2018-09-05T03:51:08.790Z,99.99
2018-09-05T03:52:08.831Z,99.99
2018-09-05T03:53:08.811Z,99.99
2018-09-05T03:54:08.757Z,99.99
2018-09-05T03:55:08.750Z,99.58
2018-09-05T03:56:08.732Z,99.48
2018-09-05T03:57:08.728Z,99.98
2018-09-05T03:58:08.758Z,99.88
2018-09-05T03:59:08.699Z,99.88
2018-09-05T04:00:08.692Z,99.98
2018-09-05T04:01:08.680Z,99.99
2018-09-05T04:02:08.917Z,99.27
2018-09-05T04:03:08.657Z,99.78
2018-09-05T04:04:08.683Z,99.99
2018-09-05T04:05:08.763Z,99.88
2018-09-05T04:06:08.632Z,99.99
2018-09-05T04:07:08.613Z,99.99
2018-09-05T04:08:08.606Z,99.52
2018-09-05T04:09:08.655Z,99.62
2018-09-05T04:10:08.633Z,99.52
2018-09-05T04:11:08.589Z,98.92
2018-09-05T04:12:08.611Z,99.52
2018-09-05T04:13:08.583Z,99.32
2018-09-05T04:14:08.594Z,99.48
2018-09-05T04:15:08.526Z,99.62
2018-09-05T04:16:08.532Z,98.82
2018-09-05T04:17:08.517Z,99.42
2018-09-05T04:18:08.495Z,98.82
2018-09-05T04:19:08.482Z,99.12
2018-09-05T04:20:08.500Z,98.61
2018-09-05T04:21:08.463Z,98.61
2018-09-05T04:22:08.554Z,98.61
2018-09-05T04:23:08.469Z,98.61
2018-09-05T04:24:08.440Z,98.36
2018-09-05T04:25:08.443Z,98.76
2018-09-05T04:26:08.408Z,98.96
2018-09-05T04:27:08.429Z,98.86
2018-09-05T04:28:08.385Z,98.96
2018-09-05T04:29:08.429Z,98.86
2018-09-05T04:30:08.389Z,98.96
2018-09-05T04:31:08.352Z,98.56
2018-09-05T04:32:08.342Z,98.91
2018-09-05T04:33:08.335Z,98.86
2018-09-05T04:34:08.350Z,99.67
2018-09-05T04:35:08.347Z,99.82
2018-09-05T04:36:08.305Z,99.82
2018-09-05T04:37:08.369Z,99.52
2018-09-05T04:38:08.277Z,99.72
2018-09-05T04:39:08.307Z,99.62
2018-09-05T04:40:08.267Z,99.99
2018-09-05T04:41:08.329Z,99.62
2018-09-05T04:42:08.278Z,99.92
2018-09-05T04:43:08.224Z,99.99
2018-09-05T04:44:08.321Z,99.32
2018-09-05T04:45:08.303Z,99.52
2018-09-05T04:46:08.254Z,99.82
2018-09-05T04:47:08.199Z,99.92
2018-09-05T04:48:08.189Z,99.56
2018-09-05T04:49:08.218Z,99.99
2018-09-05T04:50:08.154Z,99.62
2018-09-05T04:51:08.137Z,99.99
2018-09-05T04:52:08.191Z,99.99
2018-09-05T04:53:08.116Z,99.99
2018-09-05T04:54:08.131Z,99.99
2018-09-05T04:55:08.099Z,99.99
2018-09-05T04:56:08.087Z,99.99
2018-09-05T04:57:08.148Z,99.99
2018-09-05T04:58:08.063Z,99.99
2018-09-05T04:59:08.059Z,99.99
2018-09-05T05:00:08.059Z,99.99
2018-09-05T05:01:08.036Z,99.99
2018-09-05T05:02:08.051Z,99.99
2018-09-05T05:03:08.031Z,99.99
2018-09-05T05:04:08.020Z,99.99
2018-09-05T05:05:07.985Z,99.99
2018-09-05T05:06:07.980Z,99.99
2018-09-05T05:07:08.011Z,99.99
2018-09-05T05:08:07.966Z,99.99
2018-09-05T05:09:07.984Z,99.99
2018-09-05T05:10:07.951Z,99.99
2018-09-05T05:11:07.940Z,99.99
2018-09-05T05:12:07.957Z,99.99
2018-09-05T05:13:07.918Z,99.99
2018-09-05T05:14:07.921Z,99.99
2018-09-05T05:15:07.935Z,99.99
2018-09-05T05:16:07.866Z,99.99
2018-09-05T05:17:07.883Z,99.99
2018-09-05T05:18:07.883Z,99.99
2018-09-05T05:19:07.885Z,99.99
2018-09-05T05:20:07.857Z,99.99
2018-09-05T05:21:07.823Z,99.99
2018-09-05T05:22:07.834Z,99.99
2018-09-05T05:23:07.830Z,99.99
2018-09-05T05:24:07.781Z,99.99
2018-09-05T05:25:07.806Z,99.99
2018-09-05T05:26:07.760Z,99.99
2018-09-05T05:27:07.765Z,99.99
2018-09-05T05:28:07.759Z,99.99
2018-09-05T05:29:07.759Z,99.99
2018-09-05T05:30:07.715Z,99.99
2018-09-05T05:31:07.714Z,99.99
2018-09-05T05:32:07.696Z,99.99
2018-09-05T05:33:07.686Z,99.99
2018-09-05T05:34:07.711Z,99.99
2018-09-05T05:35:07.663Z,99.99
2018-09-05T05:36:07.654Z,99.38
2018-09-05T05:37:07.644Z,99.42
2018-09-05T05:38:07.632Z,99.62
2018-09-05T05:39:07.664Z,99.62
2018-09-05T05:40:07.651Z,99.99
2018-09-05T05:41:07.607Z,99.48
2018-09-05T05:42:07.597Z,99.58
2018-09-05T05:43:07.578Z,99.48
2018-09-05T05:44:07.572Z,99.68
2018-09-05T05:45:07.576Z,99.58
2018-09-05T05:46:07.580Z,99.84
2018-09-05T05:47:07.578Z,99.33
2018-09-05T05:48:07.630Z,98.52
2018-09-05T05:49:07.521Z,98.42
2018-09-05T05:50:07.530Z,98.52
2018-09-05T05:51:07.503Z,98.62
2018-09-05T05:52:07.489Z,98.78
2018-09-05T05:53:07.470Z,98.07
2018-09-05T05:54:07.476Z,98.07
2018-09-05T05:55:07.499Z,97.87
2018-09-05T05:56:07.482Z,97.97
2018-09-05T05:57:07.459Z,98.13
2018-09-05T05:58:07.426Z,98.02
2018-09-05T05:59:07.415Z,97.22
2018-09-05T06:00:07.399Z,97.12
2018-09-05T06:01:07.434Z,97.42
2018-09-05T06:02:07.390Z,96.61
2018-09-05T06:03:07.379Z,96.21
2018-09-05T06:04:07.381Z,96.51
2018-09-05T06:05:07.344Z,96.26
2018-09-05T06:06:07.451Z,96.41
2018-09-05T06:07:07.366Z,95.26
2018-09-05T06:08:07.313Z,95.46
2018-09-05T06:09:07.299Z,94.85
2018-09-05T06:10:07.307Z,94.75
2018-09-05T06:11:07.284Z,95.31
2018-09-05T06:12:07.337Z,95.61
2018-09-05T06:13:07.282Z,95.61
2018-09-05T06:14:07.251Z,94.51
2018-09-05T06:15:07.240Z,94.00
2018-09-05T06:16:07.241Z,93.66
2018-09-05T06:17:07.280Z,94.26
2018-09-05T06:18:07.203Z,93.46
2018-09-05T06:19:07.198Z,92.60
2018-09-05T06:20:07.195Z,92.91
2018-09-05T06:21:07.289Z,92.80
2018-09-05T06:22:07.225Z,92.91
2018-09-05T06:23:07.190Z,91.96
2018-09-05T06:24:07.279Z,91.46
2018-09-05T06:25:07.149Z,91.86
2018-09-05T06:26:07.147Z,91.05
2018-09-05T06:27:07.117Z,90.95
2018-09-05T06:28:07.141Z,90.61
2018-09-05T06:29:07.083Z,90.50
2018-09-05T06:30:07.083Z,90.50
2018-09-05T06:31:07.251Z,90.00
2018-09-05T06:32:07.066Z,89.86
2018-09-05T06:33:07.096Z,88.75
2018-09-05T06:34:07.085Z,89.36
2018-09-05T06:35:07.056Z,88.85
2018-09-05T06:36:07.005Z,88.45
2018-09-05T06:37:07.017Z,88.41
2018-09-05T06:38:07.035Z,88.81
2018-09-05T06:39:07.007Z,87.91
2018-09-05T06:40:06.991Z,88.27
2018-09-05T06:41:06.968Z,87.37
2018-09-05T06:42:06.956Z,86.62
2018-09-05T06:43:06.958Z,85.78
2018-09-05T06:44:06.931Z,85.27
2018-09-05T06:45:07.068Z,84.53
2018-09-05T06:46:06.903Z,84.03
2018-09-05T06:47:06.895Z,84.53
2018-09-05T06:48:06.902Z,83.29
2018-09-05T06:49:06.870Z,82.95
2018-09-05T06:50:06.877Z,82.45
2018-09-05T06:51:06.850Z,81.74
2018-09-05T06:52:06.839Z,82.31
2018-09-05T06:53:06.855Z,82.01
2018-09-05T06:54:06.824Z,80.67
2018-09-05T06:55:06.815Z,80.27
2018-09-05T06:56:06.796Z,80.36
2018-09-05T06:57:06.801Z,79.13
2018-09-05T06:58:06.841Z,78.89
2018-09-05T06:59:06.797Z,77.75
2018-09-05T07:00:06.793Z,77.15
2018-09-05T07:01:06.749Z,76.08
2018-09-05T07:02:06.735Z,75.45
2018-09-05T07:03:06.754Z,73.42
2018-09-05T07:04:06.743Z,72.98
2018-09-05T07:05:06.710Z,71.92
2018-09-05T07:06:06.705Z,69.79
2018-09-05T07:07:06.806Z,68.96
2018-09-05T07:08:06.687Z,67.93
2018-09-05T07:09:06.697Z,67.07
2018-09-05T07:10:06.758Z,66.67
2018-09-05T07:11:06.644Z,66.81
2018-09-05T07:12:06.627Z,68.27
2018-09-05T07:13:06.635Z,70.26
2018-09-05T07:14:06.668Z,71.42
2018-09-05T07:15:06.614Z,71.81
2018-09-05T07:16:06.581Z,71.85
2018-09-05T07:17:06.594Z,72.08
2018-09-05T07:18:06.566Z,72.98
2018-09-05T07:19:06.589Z,72.92
2018-09-05T07:20:06.548Z,73.22
2018-09-05T07:21:06.579Z,74.62
2018-09-05T07:22:06.592Z,74.02
2018-09-05T07:23:06.527Z,75.15
2018-09-05T07:24:06.507Z,74.35
2018-09-05T07:25:06.674Z,73.65
2018-09-05T07:26:06.491Z,74.62
2018-09-05T07:27:06.468Z,74.71
2018-09-05T07:28:06.508Z,75.05
2018-09-05T07:29:06.465Z,74.85
2018-09-05T07:30:06.460Z,74.25
2018-09-05T07:31:06.425Z,73.45
2018-09-05T07:32:06.420Z,73.45
2018-09-05T07:33:06.408Z,74.15
2018-09-05T07:34:06.411Z,74.25
2018-09-05T07:35:06.418Z,74.65
2018-09-05T07:36:06.371Z,74.55
2018-09-05T07:37:06.360Z,74.19
2018-09-05T07:38:06.354Z,74.88
2018-09-05T07:39:06.348Z,74.98
2018-09-05T07:40:06.330Z,75.68
2018-09-05T07:41:06.377Z,75.38
2018-09-05T07:42:06.309Z,75.48
2018-09-05T07:43:06.319Z,74.92
2018-09-05T07:44:06.291Z,74.72
2018-09-05T07:45:06.276Z,75.09
2018-09-05T07:46:06.322Z,75.38
2018-09-05T07:47:06.260Z,75.68
2018-09-05T07:48:06.257Z,75.02
2018-09-05T07:49:06.229Z,75.02
2018-09-05T07:50:06.239Z,75.62
2018-09-05T07:51:06.426Z,76.02
2018-09-05T07:52:06.216Z,74.79
2018-09-05T07:53:06.191Z,76.48
2018-09-05T07:54:06.195Z,75.38
2018-09-05T07:55:06.170Z,76.18
2018-09-05T07:56:06.210Z,75.25
2018-09-05T07:57:06.156Z,75.55
2018-09-05T07:58:06.159Z,75.35
2018-09-05T07:59:06.145Z,74.15
2018-09-05T08:00:06.111Z,74.45
2018-09-05T08:01:06.138Z,74.45
2018-09-05T08:02:06.160Z,74.65
2018-09-05T08:03:06.092Z,73.85
2018-09-05T08:04:06.087Z,73.65
2018-09-05T08:05:06.063Z,73.85
2018-09-05T08:06:06.072Z,74.55
2018-09-05T08:07:06.077Z,74.58
2018-09-05T08:08:06.104Z,74.15
2018-09-05T08:09:06.078Z,74.45
2018-09-05T08:10:06.032Z,73.55
2018-09-05T08:11:06.025Z,73.45
2018-09-05T08:12:06.008Z,73.91
2018-09-05T08:13:05.981Z,73.35
2018-09-05T08:14:05.973Z,74.05
2018-09-05T08:15:05.978Z,73.15
2018-09-05T08:16:06.018Z,73.72
2018-09-05T08:17:05.937Z,73.11
2018-09-05T08:18:05.985Z,73.22
2018-09-05T08:19:05.923Z,72.92
2018-09-05T08:20:05.904Z,74.11
2018-09-05T08:21:05.952Z,74.71
2018-09-05T08:22:05.886Z,73.72
2018-09-05T08:23:05.903Z,72.22
2018-09-05T08:24:05.911Z,73.08
2018-09-05T08:25:05.851Z,72.88
2018-09-05T08:26:05.893Z,73.48
2018-09-05T08:27:05.823Z,73.14
2018-09-05T08:28:05.819Z,71.45
2018-09-05T08:29:05.854Z,71.65
2018-09-05T08:30:05.843Z,71.05
2018-09-05T08:31:05.807Z,71.35
2018-09-05T08:32:05.819Z,71.32
2018-09-05T08:33:05.762Z,70.72
2018-09-05T08:34:05.759Z,71.09
2018-09-05T08:35:05.926Z,70.89
2018-09-05T08:36:06.003Z,69.49
2018-09-05T08:37:06.039Z,68.96
2018-09-05T08:38:05.799Z,68.27
2018-09-05T08:39:05.705Z,68.37
2018-09-05T08:40:05.701Z,68.86
2018-09-05T08:41:05.681Z,67.67
2018-09-05T08:42:05.714Z,67.63
2018-09-05T08:43:05.695Z,68.23
2018-09-05T08:44:05.865Z,67.74
2018-09-05T08:45:05.905Z,66.84
2018-09-05T08:46:05.749Z,66.54
2018-09-05T08:47:05.639Z,67.63
2018-09-05T08:48:05.663Z,66.71
2018-09-05T08:49:05.589Z,65.91
2018-09-05T08:50:05.675Z,67.27
2018-09-05T08:51:05.590Z,66.81
2018-09-05T08:52:05.578Z,65.12
2018-09-05T08:53:05.629Z,63.49
2018-09-05T08:54:05.545Z,63.60
2018-09-05T08:55:05.548Z,62.50
2018-09-05T08:56:05.517Z,63.30
2018-09-05T08:57:05.515Z,62.40
2018-09-05T08:58:05.517Z,63.79
2018-09-05T08:59:05.485Z,63.89
2018-09-05T09:00:05.492Z,63.37
2018-09-05T09:01:05.483Z,62.47
2018-09-05T09:02:05.466Z,60.19
2018-09-05T09:03:05.547Z,59.19
2018-09-05T09:04:05.428Z,59.99
2018-09-05T09:05:05.485Z,61.94
2018-09-05T09:06:05.425Z,62.15
2018-09-05T09:07:05.424Z,62.54
2018-09-05T09:08:05.409Z,62.51
2018-09-05T09:09:05.434Z,61.82
2018-09-05T09:10:05.366Z,61.02
2018-09-05T09:11:05.358Z,62.29
2018-09-05T09:12:05.348Z,60.99
2018-09-05T09:13:05.346Z,60.13
2018-09-05T09:14:05.371Z,60.89
2018-09-05T09:15:05.326Z,60.93
2018-09-05T09:16:05.303Z,59.41
2018-09-05T09:17:05.313Z,59.01
2018-09-05T09:18:05.303Z,58.88
2018-09-05T09:19:05.301Z,58.69
2018-09-05T09:20:05.310Z,59.18
2018-09-05T09:21:05.279Z,58.65
2018-09-05T09:22:05.288Z,59.45
2018-09-05T09:23:05.239Z,58.26
2018-09-05T09:24:05.229Z,57.64
2018-09-05T09:25:05.269Z,58.13
2018-09-05T09:26:05.200Z,58.36
2018-09-05T09:27:05.782Z,57.44
2018-09-05T09:28:05.331Z,57.04
2018-09-05T09:29:05.243Z,56.55
2018-09-05T09:30:05.234Z,56.55
2018-09-05T09:31:05.160Z,57.34
2018-09-05T09:32:05.145Z,57.61
2018-09-05T09:33:05.149Z,56.82
2018-09-05T09:34:05.121Z,57.41
2018-09-05T09:35:05.118Z,56.02
2018-09-05T09:36:05.156Z,56.42
2018-09-05T09:37:05.100Z,56.52
2018-09-05T09:38:05.077Z,55.33
2018-09-05T09:39:05.073Z,55.63
2018-09-05T09:40:05.069Z,55.80
2018-09-05T09:41:05.141Z,56.30
2018-09-05T09:42:05.039Z,56.30
2018-09-05T09:43:05.026Z,54.59
2018-09-05T09:44:05.019Z,54.12
2018-09-05T09:45:05.033Z,55.58
2018-09-05T09:46:05.015Z,54.02
2018-09-05T09:47:04.999Z,55.21
2018-09-05T09:48:04.984Z,56.44
2018-09-05T09:49:04.963Z,55.38
2018-09-05T09:50:04.966Z,55.68
2018-09-05T09:51:04.975Z,56.24
2018-09-05T09:52:04.935Z,56.34
2018-09-05T09:53:04.942Z,56.31
2018-09-05T09:54:04.924Z,56.51
2018-09-05T09:55:04.895Z,55.49
2018-09-05T09:56:04.937Z,54.41
2018-09-05T09:57:04.881Z,53.72
2018-09-05T09:58:04.897Z,51.54
2018-09-05T09:59:04.856Z,53.72
2018-09-05T10:00:04.864Z,52.14
2018-09-05T10:01:04.870Z,52.14
2018-09-05T10:02:04.825Z,52.24
2018-09-05T10:03:04.824Z,54.02
2018-09-05T10:04:04.885Z,52.04
2018-09-05T10:05:04.795Z,49.84
2018-09-05T10:06:04.786Z,51.25
2018-09-05T10:07:04.830Z,50.04
2018-09-05T10:08:04.760Z,48.96
2018-09-05T10:09:04.754Z,49.55
2018-09-05T10:10:04.997Z,50.54
2018-09-05T10:11:04.734Z,50.04
2018-09-05T10:12:04.749Z,49.74
2018-09-05T10:13:04.717Z,49.65
2018-09-05T10:14:04.703Z,50.61
2018-09-05T10:15:04.701Z,49.79
2018-09-05T10:16:04.695Z,50.19
2018-09-05T10:17:04.708Z,49.79
2018-09-05T10:18:04.657Z,47.82
2018-09-05T10:19:04.651Z,47.92
2018-09-05T10:20:04.633Z,47.85
2018-09-05T10:21:04.654Z,50.19
2018-09-05T10:22:04.676Z,49.79
2018-09-05T10:23:04.602Z,49.30
2018-09-05T10:24:04.592Z,50.26
2018-09-05T10:25:04.590Z,49.16
2018-09-05T10:26:04.604Z,49.26
2018-09-05T10:27:04.601Z,47.90
2018-09-05T10:28:04.597Z,47.97
2018-09-05T10:29:04.547Z,49.75
2018-09-05T10:30:04.546Z,48.27
2018-09-05T10:31:04.548Z,46.87
2018-09-05T10:32:04.509Z,47.56
2018-09-05T10:33:04.527Z,47.19
2018-09-05T10:34:04.528Z,47.19
2018-09-05T10:35:04.483Z,48.07
2018-09-05T10:36:04.491Z,46.99
2018-09-05T10:37:04.475Z,48.17
2018-09-05T10:38:04.493Z,47.56
2018-09-05T10:39:04.440Z,47.66
2018-09-05T10:40:04.498Z,47.66
2018-09-05T10:41:04.417Z,46.37
2018-09-05T10:42:04.407Z,46.37
2018-09-05T10:43:04.445Z,46.37
2018-09-05T10:44:04.445Z,45.78
2018-09-05T10:45:04.384Z,46.15
2018-09-05T10:46:04.366Z,45.86
2018-09-05T10:47:04.355Z,44.48
2018-09-05T10:48:04.377Z,44.80
2018-09-05T10:49:04.348Z,44.80
2018-09-05T10:50:04.345Z,45.68
2018-09-05T10:51:04.323Z,45.29
2018-09-05T10:52:04.319Z,45.49
2018-09-05T10:53:04.359Z,45.29
2018-09-05T10:54:04.290Z,45.59
2018-09-05T10:55:04.298Z,43.01
2018-09-05T10:56:04.265Z,43.82
2018-09-05T10:57:04.276Z,42.93
2018-09-05T10:58:04.296Z,43.20
2018-09-05T10:59:04.238Z,44.19
2018-09-05T11:00:04.244Z,44.51
2018-09-05T11:01:04.256Z,44.21
2018-09-05T11:02:04.207Z,45.47
2018-09-05T11:03:04.267Z,45.56
2018-09-05T11:04:04.210Z,44.56
2018-09-05T11:05:04.195Z,43.70
2018-09-05T11:06:04.170Z,43.99
2018-09-05T11:07:04.165Z,43.50
2018-09-05T11:08:04.154Z,42.32
2018-09-05T11:09:04.187Z,42.69
2018-09-05T11:10:04.122Z,43.13
2018-09-05T11:11:04.110Z,42.73
2018-09-05T11:12:04.097Z,42.91
2018-09-05T11:13:04.089Z,42.91
2018-09-05T11:14:04.077Z,42.44
2018-09-05T11:15:04.098Z,43.62
2018-09-05T11:16:04.065Z,43.03
2018-09-05T11:17:04.058Z,43.03
2018-09-05T11:18:04.045Z,43.13
2018-09-05T11:19:04.043Z,44.70
2018-09-05T11:20:04.051Z,44.90
2018-09-05T11:21:04.012Z,44.82
2018-09-05T11:22:03.996Z,44.82
2018-09-05T11:23:03.995Z,44.90
2018-09-05T11:24:03.986Z,44.43
2018-09-05T11:25:03.990Z,44.94
2018-09-05T11:26:03.963Z,45.34
2018-09-05T11:27:03.951Z,45.14
2018-09-05T11:28:03.936Z,45.12
2018-09-05T11:29:04.023Z,45.21
2018-09-05T11:30:03.979Z,46.20
2018-09-05T11:31:03.902Z,44.62
2018-09-05T11:32:03.892Z,45.81
2018-09-05T11:33:03.880Z,45.41
2018-09-05T11:34:03.872Z,45.71
2018-09-05T11:35:03.868Z,45.21
2018-09-05T11:36:03.882Z,45.21
2018-09-05T11:37:03.937Z,45.43
2018-09-05T11:38:03.829Z,46.32
2018-09-05T11:39:03.820Z,46.69
2018-09-05T11:40:03.810Z,45.34
2018-09-05T11:41:03.825Z,46.42
2018-09-05T11:42:03.800Z,46.81
2018-09-05T11:43:03.787Z,46.12
2018-09-05T11:44:03.771Z,44.94
2018-09-05T11:45:03.758Z,45.53
2018-09-05T11:46:03.833Z,45.31
2018-09-05T11:47:03.742Z,46.50
2018-09-05T11:48:03.765Z,45.02
2018-09-05T11:49:03.722Z,44.92
2018-09-05T11:50:03.709Z,44.70
2018-09-05T11:51:03.697Z,44.56
2018-09-05T11:52:03.715Z,43.46
2018-09-05T11:53:03.702Z,42.99
2018-09-05T11:54:03.664Z,42.83
2018-09-05T11:55:03.655Z,44.43
2018-09-05T11:56:03.644Z,44.80
2018-09-05T11:57:03.667Z,43.10
2018-09-05T11:58:03.626Z,42.81
2018-09-05T11:59:03.615Z,43.40
2018-09-05T12:00:03.603Z,42.79
2018-09-05T12:01:03.593Z,42.89
2018-09-05T12:02:03.614Z,42.89
2018-09-05T12:03:03.573Z,42.77
2018-09-05T12:04:03.563Z,42.86
2018-09-05T12:05:03.689Z,42.45
2018-09-05T12:06:03.566Z,43.02
2018-09-05T12:07:03.532Z,41.21
2018-09-05T12:08:03.678Z,40.80
2018-09-05T12:09:03.517Z,40.08
2018-09-05T12:10:03.508Z,39.19
2018-09-05T12:11:03.491Z,38.62
2018-09-05T12:12:03.554Z,39.90
2018-09-05T12:13:03.520Z,38.53
2018-09-05T12:14:03.464Z,39.82
2018-09-05T12:15:03.451Z,40.09
2018-09-05T12:16:03.466Z,39.98
2018-09-05T12:17:03.431Z,40.09
2018-09-05T12:18:03.452Z,40.19
2018-09-05T12:19:03.411Z,38.76
2018-09-05T12:20:03.404Z,39.94
2018-09-05T12:21:03.390Z,40.92
2018-09-05T12:22:03.420Z,40.31
2018-09-05T12:23:03.402Z,39.72
2018-09-05T12:24:03.372Z,38.85
2018-09-05T12:25:03.374Z,40.06
2018-09-05T12:26:03.341Z,40.37
2018-09-05T12:27:03.333Z,41.84
2018-09-05T12:28:03.327Z,40.98
2018-09-05T12:29:03.364Z,40.76
2018-09-05T12:30:03.330Z,41.74
2018-09-05T12:31:03.296Z,41.94
2018-09-05T12:32:03.280Z,40.88
2018-09-05T12:33:03.273Z,41.37
2018-09-05T12:34:03.286Z,40.90
2018-09-05T12:35:03.250Z,41.17
2018-09-05T12:36:03.239Z,40.96
2018-09-05T12:37:03.227Z,40.08
2018-09-05T12:38:03.230Z,41.25
2018-09-05T12:39:03.207Z,40.80
2018-09-05T12:40:03.230Z,41.59
2018-09-05T12:41:03.186Z,41.19
2018-09-05T12:42:03.185Z,41.78
2018-09-05T12:43:03.167Z,42.67
2018-09-05T12:44:03.167Z,41.00
2018-09-05T12:45:03.180Z,42.10
2018-09-05T12:46:03.145Z,42.22
2018-09-05T12:47:03.140Z,42.71
2018-09-05T12:48:03.165Z,42.81
2018-09-05T12:49:03.106Z,43.40
2018-09-05T12:50:03.119Z,42.83
2018-09-05T12:51:03.086Z,42.73
2018-09-05T12:52:03.083Z,42.63